sensor_id;sensor_type;location;lat;lon;timestamp;temperature;humidity
30764;DHT22;17497;51.476;7.770;2023-04-21T00:02:17;8.60;99.90
30764;DHT22;17497;51.476;7.770;2023-04-21T00:04:45;8.60;99.90
30764;DHT22;17497;51.476;7.770;2023-04-21T00:07:12;8.40;99.90
30764;DHT22;17497;51.476;7.770;2023-04-21T00:09:40;8.40;99.90
30764;DHT22;17497;51.476;7.770;2023-04-21T00:12:07;8.40;99.90
30764;DHT22;17497;51.476;7.770;2023-04-21T00:14:33;8.40;99.90
30764;DHT22;17497;51.476;7.770;2023-04-21T00:17:00;8.40;99.90
30764;DHT22;17497;51.476;7.770;2023-04-21T00:19:27;8.40;99.90
30764;DHT22;17497;51.476;7.770;2023-04-21T00:21:55;8.40;99.90
30764;DHT22;17497;51.476;7.770;2023-04-21T00:24:24;8.50;99.90
30764;DHT22;17497;51.476;7.770;2023-04-21T00:26:51;8.50;99.90
30764;DHT22;17497;51.476;7.770;2023-04-21T00:29:18;8.60;99.90
30764;DHT22;17497;51.476;7.770;2023-04-21T00:31:45;8.60;99.90
30764;DHT22;17497;51.476;7.770;2023-04-21T00:34:12;8.60;99.90
30764;DHT22;17497;51.476;7.770;2023-04-21T00:36:38;8.60;99.90
30764;DHT22;17497;51.476;7.770;2023-04-21T00:39:05;8.70;99.90
30764;DHT22;17497;51.476;7.770;2023-04-21T00:41:32;8.70;99.90
30764;DHT22;17497;51.476;7.770;2023-04-21T00:44:04;8.70;99.90
30764;DHT22;17497;51.476;7.770;2023-04-21T00:46:31;8.70;99.90
30764;DHT22;17497;51.476;7.770;2023-04-21T00:48:58;8.80;99.90
30764;DHT22;17497;51.476;7.770;2023-04-21T00:51:28;8.70;99.90
30764;DHT22;17497;51.476;7.770;2023-04-21T00:53:55;8.70;99.90
30764;DHT22;17497;51.476;7.770;2023-04-21T00:56:22;8.70;99.90
30764;DHT22;17497;51.476;7.770;2023-04-21T00:58:49;8.80;99.90
30764;DHT22;17497;51.476;7.770;2023-04-21T01:01:16;8.80;99.90
30764;DHT22;17497;51.476;7.770;2023-04-21T01:03:43;8.80;99.90
30764;DHT22;17497;51.476;7.770;2023-04-21T01:06:10;8.80;99.90
30764;DHT22;17497;51.476;7.770;2023-04-21T01:08:37;8.70;99.90
30764;DHT22;17497;51.476;7.770;2023-04-21T01:11:10;8.70;99.90
30764;DHT22;17497;51.476;7.770;2023-04-21T01:13:37;8.70;99.90
30764;DHT22;17497;51.476;7.770;2023-04-21T01:16:05;8.70;99.90
30764;DHT22;17497;51.476;7.770;2023-04-21T01:18:32;8.70;99.90
30764;DHT22;17497;51.476;7.770;2023-04-21T01:20:59;8.60;99.90
30764;DHT22;17497;51.476;7.770;2023-04-21T01:23:26;8.60;99.90
30764;DHT22;17497;51.476;7.770;2023-04-21T01:25:55;8.50;99.90
30764;DHT22;17497;51.476;7.770;2023-04-21T01:28:22;8.50;99.90
30764;DHT22;17497;51.476;7.770;2023-04-21T01:30:49;8.50;99.90
30764;DHT22;17497;51.476;7.770;2023-04-21T01:33:16;8.40;99.90
30764;DHT22;17497;51.476;7.770;2023-04-21T01:35:43;8.40;99.90
30764;DHT22;17497;51.476;7.770;2023-04-21T01:38:10;8.50;99.90
30764;DHT22;17497;51.476;7.770;2023-04-21T01:40:37;8.40;99.90
30764;DHT22;17497;51.476;7.770;2023-04-21T01:43:04;8.40;99.90
30764;DHT22;17497;51.476;7.770;2023-04-21T01:45:31;8.40;99.90
30764;DHT22;17497;51.476;7.770;2023-04-21T01:47:57;8.40;99.90
30764;DHT22;17497;51.476;7.770;2023-04-21T01:50:24;8.40;99.90
30764;DHT22;17497;51.476;7.770;2023-04-21T01:52:51;8.40;99.90
30764;DHT22;17497;51.476;7.770;2023-04-21T01:55:17;8.40;99.90
30764;DHT22;17497;51.476;7.770;2023-04-21T01:57:44;8.50;99.90
30764;DHT22;17497;51.476;7.770;2023-04-21T02:00:11;8.50;99.90
30764;DHT22;17497;51.476;7.770;2023-04-21T02:02:38;8.50;99.90
30764;DHT22;17497;51.476;7.770;2023-04-21T02:05:05;8.50;99.90
30764;DHT22;17497;51.476;7.770;2023-04-21T02:07:31;8.40;99.90
30764;DHT22;17497;51.476;7.770;2023-04-21T02:09:58;8.40;99.90
30764;DHT22;17497;51.476;7.770;2023-04-21T02:12:25;8.50;99.90
30764;DHT22;17497;51.476;7.770;2023-04-21T02:14:51;8.50;99.90
30764;DHT22;17497;51.476;7.770;2023-04-21T02:17:18;8.50;99.90
30764;DHT22;17497;51.476;7.770;2023-04-21T02:19:45;8.50;99.90
30764;DHT22;17497;51.476;7.770;2023-04-21T02:22:13;8.60;99.90
30764;DHT22;17497;51.476;7.770;2023-04-21T02:24:39;8.60;99.90
30764;DHT22;17497;51.476;7.770;2023-04-21T02:27:06;8.60;99.90
30764;DHT22;17497;51.476;7.770;2023-04-21T02:29:33;8.60;99.90
30764;DHT22;17497;51.476;7.770;2023-04-21T02:32:00;8.50;99.90
30764;DHT22;17497;51.476;7.770;2023-04-21T02:34:39;8.50;99.90
30764;DHT22;17497;51.476;7.770;2023-04-21T02:37:07;8.40;99.90
30764;DHT22;17497;51.476;7.770;2023-04-21T02:39:37;8.40;99.90
30764;DHT22;17497;51.476;7.770;2023-04-21T02:42:03;8.30;99.90
30764;DHT22;17497;51.476;7.770;2023-04-21T02:44:30;8.30;99.90
30764;DHT22;17497;51.476;7.770;2023-04-21T02:46:57;8.20;99.90
30764;DHT22;17497;51.476;7.770;2023-04-21T02:49:25;8.20;99.90
30764;DHT22;17497;51.476;7.770;2023-04-21T02:51:52;8.10;99.90
30764;DHT22;17497;51.476;7.770;2023-04-21T02:54:20;8.10;99.90
30764;DHT22;17497;51.476;7.770;2023-04-21T02:56:47;8.00;99.90
30764;DHT22;17497;51.476;7.770;2023-04-21T02:59:13;8.10;99.90
30764;DHT22;17497;51.476;7.770;2023-04-21T03:01:42;8.00;99.90
30764;DHT22;17497;51.476;7.770;2023-04-21T03:04:08;8.00;99.90
30764;DHT22;17497;51.476;7.770;2023-04-21T03:06:35;8.00;99.90
30764;DHT22;17497;51.476;7.770;2023-04-21T03:09:02;7.90;99.90
30764;DHT22;17497;51.476;7.770;2023-04-21T03:11:29;7.90;99.90
30764;DHT22;17497;51.476;7.770;2023-04-21T03:13:55;7.90;99.90
30764;DHT22;17497;51.476;7.770;2023-04-21T03:16:22;8.00;99.90
30764;DHT22;17497;51.476;7.770;2023-04-21T03:18:48;8.00;99.90
30764;DHT22;17497;51.476;7.770;2023-04-21T03:21:15;8.00;99.90
30764;DHT22;17497;51.476;7.770;2023-04-21T03:23:42;8.00;99.90
30764;DHT22;17497;51.476;7.770;2023-04-21T03:26:09;8.10;99.90
30764;DHT22;17497;51.476;7.770;2023-04-21T03:28:35;8.10;99.90
30764;DHT22;17497;51.476;7.770;2023-04-21T03:31:02;7.90;99.90
30764;DHT22;17497;51.476;7.770;2023-04-21T03:33:29;7.70;99.90
30764;DHT22;17497;51.476;7.770;2023-04-21T03:35:55;7.70;99.90
30764;DHT22;17497;51.476;7.770;2023-04-21T03:38:22;7.80;99.90
30764;DHT22;17497;51.476;7.770;2023-04-21T03:40:49;7.80;99.90
30764;DHT22;17497;51.476;7.770;2023-04-21T03:43:16;7.80;99.90
30764;DHT22;17497;51.476;7.770;2023-04-21T03:45:42;7.80;99.90
30764;DHT22;17497;51.476;7.770;2023-04-21T03:48:09;7.90;99.90
30764;DHT22;17497;51.476;7.770;2023-04-21T03:50:36;7.80;99.90
30764;DHT22;17497;51.476;7.770;2023-04-21T03:53:03;7.80;99.90
30764;DHT22;17497;51.476;7.770;2023-04-21T03:55:30;7.80;99.90
30764;DHT22;17497;51.476;7.770;2023-04-21T03:57:57;7.90;99.90
30764;DHT22;17497;51.476;7.770;2023-04-21T04:00:23;7.90;99.90
30764;DHT22;17497;51.476;7.770;2023-04-21T04:02:50;7.90;99.90
30764;DHT22;17497;51.476;7.770;2023-04-21T04:05:17;8.00;99.90
30764;DHT22;17497;51.476;7.770;2023-04-21T04:07:44;8.00;99.90
30764;DHT22;17497;51.476;7.770;2023-04-21T04:10:11;8.00;99.90
30764;DHT22;17497;51.476;7.770;2023-04-21T04:12:37;8.00;99.90
30764;DHT22;17497;51.476;7.770;2023-04-21T04:15:04;8.00;99.90
30764;DHT22;17497;51.476;7.770;2023-04-21T04:17:31;8.00;99.90
30764;DHT22;17497;51.476;7.770;2023-04-21T04:19:58;7.90;99.90
30764;DHT22;17497;51.476;7.770;2023-04-21T04:22:24;7.90;99.90
30764;DHT22;17497;51.476;7.770;2023-04-21T04:24:51;7.80;99.90
30764;DHT22;17497;51.476;7.770;2023-04-21T04:27:18;7.80;99.90
30764;DHT22;17497;51.476;7.770;2023-04-21T04:29:45;7.80;99.90
30764;DHT22;17497;51.476;7.770;2023-04-21T04:32:14;7.80;99.90
30764;DHT22;17497;51.476;7.770;2023-04-21T04:34:41;7.80;99.90
30764;DHT22;17497;51.476;7.770;2023-04-21T04:37:07;7.70;99.90
30764;DHT22;17497;51.476;7.770;2023-04-21T04:39:36;7.70;99.90
30764;DHT22;17497;51.476;7.770;2023-04-21T04:42:05;7.70;99.90
30764;DHT22;17497;51.476;7.770;2023-04-21T04:44:32;7.70;99.90
30764;DHT22;17497;51.476;7.770;2023-04-21T04:46:58;7.70;99.90
30764;DHT22;17497;51.476;7.770;2023-04-21T04:49:25;7.70;99.90
30764;DHT22;17497;51.476;7.770;2023-04-21T04:51:52;7.70;99.90
30764;DHT22;17497;51.476;7.770;2023-04-21T04:54:19;7.80;99.90
30764;DHT22;17497;51.476;7.770;2023-04-21T04:56:46;7.80;99.90
30764;DHT22;17497;51.476;7.770;2023-04-21T04:59:12;7.90;99.90
30764;DHT22;17497;51.476;7.770;2023-04-21T05:01:39;7.90;99.90
30764;DHT22;17497;51.476;7.770;2023-04-21T05:04:07;7.90;99.90
30764;DHT22;17497;51.476;7.770;2023-04-21T05:06:34;8.00;99.90
30764;DHT22;17497;51.476;7.770;2023-04-21T05:09:00;8.10;99.90
30764;DHT22;17497;51.476;7.770;2023-04-21T05:11:27;8.10;99.90
30764;DHT22;17497;51.476;7.770;2023-04-21T05:13:54;8.10;99.90
30764;DHT22;17497;51.476;7.770;2023-04-21T05:16:20;8.20;99.90
30764;DHT22;17497;51.476;7.770;2023-04-21T05:18:47;8.20;99.90
30764;DHT22;17497;51.476;7.770;2023-04-21T05:21:25;8.20;99.90
30764;DHT22;17497;51.476;7.770;2023-04-21T05:23:55;8.20;99.90
30764;DHT22;17497;51.476;7.770;2023-04-21T05:26:23;8.20;99.90
30764;DHT22;17497;51.476;7.770;2023-04-21T05:28:50;8.30;99.90
30764;DHT22;17497;51.476;7.770;2023-04-21T05:31:16;8.30;99.90
30764;DHT22;17497;51.476;7.770;2023-04-21T05:33:43;8.40;99.90
30764;DHT22;17497;51.476;7.770;2023-04-21T05:36:10;8.40;99.90
30764;DHT22;17497;51.476;7.770;2023-04-21T05:38:37;8.40;99.90
30764;DHT22;17497;51.476;7.770;2023-04-21T05:41:04;8.40;99.90
30764;DHT22;17497;51.476;7.770;2023-04-21T05:43:30;8.40;99.90
30764;DHT22;17497;51.476;7.770;2023-04-21T05:46:00;8.50;99.90
30764;DHT22;17497;51.476;7.770;2023-04-21T05:48:27;8.50;99.90
30764;DHT22;17497;51.476;7.770;2023-04-21T05:50:56;8.50;99.90
30764;DHT22;17497;51.476;7.770;2023-04-21T05:53:23;8.60;99.90
30764;DHT22;17497;51.476;7.770;2023-04-21T05:55:50;8.60;99.90
30764;DHT22;17497;51.476;7.770;2023-04-21T05:58:16;8.70;99.90
30764;DHT22;17497;51.476;7.770;2023-04-21T06:00:43;8.70;99.90
30764;DHT22;17497;51.476;7.770;2023-04-21T06:03:14;8.80;99.90
30764;DHT22;17497;51.476;7.770;2023-04-21T06:05:40;8.90;99.90
30764;DHT22;17497;51.476;7.770;2023-04-21T06:08:07;8.90;99.90
30764;DHT22;17497;51.476;7.770;2023-04-21T06:10:34;8.90;99.90
30764;DHT22;17497;51.476;7.770;2023-04-21T06:13:00;9.00;99.90
30764;DHT22;17497;51.476;7.770;2023-04-21T06:15:27;9.00;99.90
30764;DHT22;17497;51.476;7.770;2023-04-21T06:17:54;9.10;99.90
30764;DHT22;17497;51.476;7.770;2023-04-21T06:20:20;9.10;99.90
30764;DHT22;17497;51.476;7.770;2023-04-21T06:22:47;9.20;99.90
30764;DHT22;17497;51.476;7.770;2023-04-21T06:25:14;9.20;99.90
30764;DHT22;17497;51.476;7.770;2023-04-21T06:27:41;9.20;99.90
30764;DHT22;17497;51.476;7.770;2023-04-21T06:30:07;9.30;99.90
30764;DHT22;17497;51.476;7.770;2023-04-21T06:32:34;9.30;99.90
30764;DHT22;17497;51.476;7.770;2023-04-21T06:35:01;9.40;99.90
30764;DHT22;17497;51.476;7.770;2023-04-21T06:37:28;9.40;99.90
30764;DHT22;17497;51.476;7.770;2023-04-21T06:39:54;9.50;99.90
30764;DHT22;17497;51.476;7.770;2023-04-21T06:42:21;9.60;99.90
30764;DHT22;17497;51.476;7.770;2023-04-21T06:44:48;9.60;99.90
30764;DHT22;17497;51.476;7.770;2023-04-21T06:47:16;9.70;99.90
30764;DHT22;17497;51.476;7.770;2023-04-21T06:49:43;9.80;99.90
30764;DHT22;17497;51.476;7.770;2023-04-21T06:52:09;9.80;99.90
30764;DHT22;17497;51.476;7.770;2023-04-21T06:54:37;9.90;99.90
30764;DHT22;17497;51.476;7.770;2023-04-21T06:57:03;10.00;99.90
30764;DHT22;17497;51.476;7.770;2023-04-21T06:59:31;10.00;99.90
30764;DHT22;17497;51.476;7.770;2023-04-21T07:01:58;10.00;99.90
30764;DHT22;17497;51.476;7.770;2023-04-21T07:04:25;10.00;99.90
30764;DHT22;17497;51.476;7.770;2023-04-21T07:06:55;10.00;99.90
30764;DHT22;17497;51.476;7.770;2023-04-21T07:09:22;10.10;99.90
30764;DHT22;17497;51.476;7.770;2023-04-21T07:11:49;10.10;99.90
30764;DHT22;17497;51.476;7.770;2023-04-21T07:14:15;10.10;99.90
30764;DHT22;17497;51.476;7.770;2023-04-21T07:16:42;10.10;99.90
30764;DHT22;17497;51.476;7.770;2023-04-21T07:19:08;10.20;99.90
30764;DHT22;17497;51.476;7.770;2023-04-21T07:21:35;10.20;99.90
30764;DHT22;17497;51.476;7.770;2023-04-21T07:24:02;10.20;99.90
30764;DHT22;17497;51.476;7.770;2023-04-21T07:26:29;10.10;99.90
30764;DHT22;17497;51.476;7.770;2023-04-21T07:28:56;10.20;99.90
30764;DHT22;17497;51.476;7.770;2023-04-21T07:31:24;10.30;99.90
30764;DHT22;17497;51.476;7.770;2023-04-21T07:33:50;10.30;99.90
30764;DHT22;17497;51.476;7.770;2023-04-21T07:36:17;10.30;99.90
30764;DHT22;17497;51.476;7.770;2023-04-21T07:38:44;10.40;99.90
30764;DHT22;17497;51.476;7.770;2023-04-21T07:41:11;10.50;99.90
30764;DHT22;17497;51.476;7.770;2023-04-21T07:43:38;10.50;99.90
30764;DHT22;17497;51.476;7.770;2023-04-21T07:46:05;10.60;99.90
30764;DHT22;17497;51.476;7.770;2023-04-21T07:48:32;10.60;99.90
30764;DHT22;17497;51.476;7.770;2023-04-21T07:50:58;10.70;99.90
30764;DHT22;17497;51.476;7.770;2023-04-21T07:53:26;10.80;99.90
30764;DHT22;17497;51.476;7.770;2023-04-21T07:55:52;10.90;99.90
30764;DHT22;17497;51.476;7.770;2023-04-21T07:58:20;11.00;99.90
30764;DHT22;17497;51.476;7.770;2023-04-21T08:00:47;11.00;99.90
30764;DHT22;17497;51.476;7.770;2023-04-21T08:03:14;11.00;99.90
30764;DHT22;17497;51.476;7.770;2023-04-21T08:05:41;11.00;99.90
30764;DHT22;17497;51.476;7.770;2023-04-21T08:08:07;11.10;99.90
30764;DHT22;17497;51.476;7.770;2023-04-21T08:10:34;11.20;99.90
30764;DHT22;17497;51.476;7.770;2023-04-21T08:13:01;11.30;99.90
30764;DHT22;17497;51.476;7.770;2023-04-21T08:15:28;11.40;99.90
30764;DHT22;17497;51.476;7.770;2023-04-21T08:17:55;11.60;99.90
30764;DHT22;17497;51.476;7.770;2023-04-21T08:20:22;11.70;99.90
30764;DHT22;17497;51.476;7.770;2023-04-21T08:22:48;11.90;99.90
30764;DHT22;17497;51.476;7.770;2023-04-21T08:25:15;11.90;99.90
30764;DHT22;17497;51.476;7.770;2023-04-21T08:27:42;12.10;99.90
30764;DHT22;17497;51.476;7.770;2023-04-21T08:30:09;12.10;99.90
30764;DHT22;17497;51.476;7.770;2023-04-21T08:32:36;12.20;99.90
30764;DHT22;17497;51.476;7.770;2023-04-21T08:35:03;12.20;99.90
30764;DHT22;17497;51.476;7.770;2023-04-21T08:37:29;12.30;99.90
30764;DHT22;17497;51.476;7.770;2023-04-21T08:39:56;12.50;99.90
30764;DHT22;17497;51.476;7.770;2023-04-21T08:42:23;12.50;99.90
30764;DHT22;17497;51.476;7.770;2023-04-21T08:44:49;12.40;99.90
30764;DHT22;17497;51.476;7.770;2023-04-21T08:47:16;12.40;99.90
30764;DHT22;17497;51.476;7.770;2023-04-21T08:49:43;12.40;99.90
30764;DHT22;17497;51.476;7.770;2023-04-21T08:52:11;12.40;99.90
30764;DHT22;17497;51.476;7.770;2023-04-21T08:54:39;12.40;99.90
30764;DHT22;17497;51.476;7.770;2023-04-21T08:57:06;12.40;99.90
30764;DHT22;17497;51.476;7.770;2023-04-21T08:59:40;12.30;99.90
30764;DHT22;17497;51.476;7.770;2023-04-21T09:04:37;12.30;99.90
30764;DHT22;17497;51.476;7.770;2023-04-21T09:07:05;12.30;99.90
30764;DHT22;17497;51.476;7.770;2023-04-21T09:12:19;12.30;99.90
30764;DHT22;17497;51.476;7.770;2023-04-21T09:14:46;12.30;99.90
30764;DHT22;17497;51.476;7.770;2023-04-21T09:17:16;12.30;99.90
30764;DHT22;17497;51.476;7.770;2023-04-21T09:19:43;12.40;99.90
30764;DHT22;17497;51.476;7.770;2023-04-21T09:22:13;12.40;99.90
30764;DHT22;17497;51.476;7.770;2023-04-21T09:24:43;12.60;99.90
30764;DHT22;17497;51.476;7.770;2023-04-21T09:27:10;12.60;99.90
30764;DHT22;17497;51.476;7.770;2023-04-21T09:29:37;12.60;99.90
30764;DHT22;17497;51.476;7.770;2023-04-21T09:32:03;12.50;99.90
30764;DHT22;17497;51.476;7.770;2023-04-21T09:34:31;12.60;99.90
30764;DHT22;17497;51.476;7.770;2023-04-21T09:37:02;12.50;99.90
30764;DHT22;17497;51.476;7.770;2023-04-21T09:39:30;12.60;99.90
30764;DHT22;17497;51.476;7.770;2023-04-21T09:42:11;12.80;99.90
30764;DHT22;17497;51.476;7.770;2023-04-21T09:44:38;12.90;99.90
30764;DHT22;17497;51.476;7.770;2023-04-21T09:47:16;13.10;99.90
30764;DHT22;17497;51.476;7.770;2023-04-21T09:49:43;13.20;99.90
30764;DHT22;17497;51.476;7.770;2023-04-21T09:52:11;13.40;99.90
30764;DHT22;17497;51.476;7.770;2023-04-21T09:55:08;13.50;99.90
30764;DHT22;17497;51.476;7.770;2023-04-21T09:57:31;13.70;99.90
30764;DHT22;17497;51.476;7.770;2023-04-21T10:00:03;13.90;99.90
30764;DHT22;17497;51.476;7.770;2023-04-21T10:02:30;14.10;99.90
30764;DHT22;17497;51.476;7.770;2023-04-21T10:04:57;14.20;99.90
30764;DHT22;17497;51.476;7.770;2023-04-21T10:07:24;14.40;99.90
30764;DHT22;17497;51.476;7.770;2023-04-21T10:09:51;14.60;99.90
30764;DHT22;17497;51.476;7.770;2023-04-21T10:12:21;14.80;99.90
30764;DHT22;17497;51.476;7.770;2023-04-21T10:14:55;14.90;99.90
30764;DHT22;17497;51.476;7.770;2023-04-21T10:17:22;15.10;99.90
30764;DHT22;17497;51.476;7.770;2023-04-21T10:19:51;15.30;99.90
30764;DHT22;17497;51.476;7.770;2023-04-21T10:22:33;15.40;99.90
30764;DHT22;17497;51.476;7.770;2023-04-21T10:25:01;15.80;99.90
30764;DHT22;17497;51.476;7.770;2023-04-21T10:29:58;16.80;99.90
30764;DHT22;17497;51.476;7.770;2023-04-21T10:35:21;17.40;99.90
30764;DHT22;17497;51.476;7.770;2023-04-21T10:37:48;17.40;99.90
30764;DHT22;17497;51.476;7.770;2023-04-21T10:43:40;17.10;99.90
30764;DHT22;17497;51.476;7.770;2023-04-21T10:45:55;16.50;99.90
30764;DHT22;17497;51.476;7.770;2023-04-21T10:48:22;16.40;99.90
30764;DHT22;17497;51.476;7.770;2023-04-21T10:50:48;16.60;99.90
30764;DHT22;17497;51.476;7.770;2023-04-21T10:53:15;16.60;99.90
30764;DHT22;17497;51.476;7.770;2023-04-21T10:55:43;16.80;99.90
30764;DHT22;17497;51.476;7.770;2023-04-21T10:58:14;17.30;99.90
30764;DHT22;17497;51.476;7.770;2023-04-21T11:00:41;17.60;99.90
30764;DHT22;17497;51.476;7.770;2023-04-21T11:03:08;17.90;99.90
30764;DHT22;17497;51.476;7.770;2023-04-21T11:05:36;17.80;99.90
30764;DHT22;17497;51.476;7.770;2023-04-21T11:08:04;18.00;99.90
30764;DHT22;17497;51.476;7.770;2023-04-21T11:10:41;18.00;99.90
30764;DHT22;17497;51.476;7.770;2023-04-21T11:13:08;17.80;99.90
30764;DHT22;17497;51.476;7.770;2023-04-21T11:15:35;17.50;99.90
30764;DHT22;17497;51.476;7.770;2023-04-21T11:18:01;17.50;99.90
30764;DHT22;17497;51.476;7.770;2023-04-21T11:20:28;17.30;99.90
30764;DHT22;17497;51.476;7.770;2023-04-21T11:22:56;16.70;99.90
30764;DHT22;17497;51.476;7.770;2023-04-21T11:25:23;17.00;99.90
30764;DHT22;17497;51.476;7.770;2023-04-21T11:27:55;16.90;99.90
30764;DHT22;17497;51.476;7.770;2023-04-21T11:30:32;16.90;99.90
30764;DHT22;17497;51.476;7.770;2023-04-21T11:33:02;16.90;99.90
30764;DHT22;17497;51.476;7.770;2023-04-21T11:35:29;16.70;99.90
30764;DHT22;17497;51.476;7.770;2023-04-21T11:37:56;16.50;99.90
30764;DHT22;17497;51.476;7.770;2023-04-21T11:40:23;16.70;99.90
30764;DHT22;17497;51.476;7.770;2023-04-21T11:42:49;16.10;99.90
30764;DHT22;17497;51.476;7.770;2023-04-21T11:45:17;15.70;99.90
30764;DHT22;17497;51.476;7.770;2023-04-21T11:47:47;16.00;99.90
30764;DHT22;17497;51.476;7.770;2023-04-21T11:50:28;16.30;99.90
30764;DHT22;17497;51.476;7.770;2023-04-21T11:52:55;16.40;99.90
30764;DHT22;17497;51.476;7.770;2023-04-21T11:55:22;16.40;99.90
30764;DHT22;17497;51.476;7.770;2023-04-21T11:57:49;15.90;99.90
30764;DHT22;17497;51.476;7.770;2023-04-21T12:00:17;15.90;99.90
30764;DHT22;17497;51.476;7.770;2023-04-21T12:02:44;15.90;99.90
30764;DHT22;17497;51.476;7.770;2023-04-21T12:05:19;15.90;99.90
30764;DHT22;17497;51.476;7.770;2023-04-21T12:07:46;16.00;99.90
30764;DHT22;17497;51.476;7.770;2023-04-21T12:10:18;16.00;99.90
30764;DHT22;17497;51.476;7.770;2023-04-21T12:12:48;16.00;99.90
30764;DHT22;17497;51.476;7.770;2023-04-21T12:15:25;16.10;99.90
30764;DHT22;17497;51.476;7.770;2023-04-21T12:17:55;16.10;99.90
30764;DHT22;17497;51.476;7.770;2023-04-21T12:20:23;16.30;99.90
30764;DHT22;17497;51.476;7.770;2023-04-21T12:22:49;16.60;99.90
30764;DHT22;17497;51.476;7.770;2023-04-21T12:25:16;16.90;99.90
30764;DHT22;17497;51.476;7.770;2023-04-21T12:27:56;17.70;99.90
30764;DHT22;17497;51.476;7.770;2023-04-21T12:30:23;19.20;99.90
30764;DHT22;17497;51.476;7.770;2023-04-21T12:32:49;20.50;99.90
30764;DHT22;17497;51.476;7.770;2023-04-21T12:35:17;20.90;99.90
30764;DHT22;17497;51.476;7.770;2023-04-21T12:37:44;19.80;99.90
30764;DHT22;17497;51.476;7.770;2023-04-21T12:40:10;19.50;99.90
30764;DHT22;17497;51.476;7.770;2023-04-21T12:42:37;19.30;99.90
30764;DHT22;17497;51.476;7.770;2023-04-21T12:45:04;19.00;99.90
30764;DHT22;17497;51.476;7.770;2023-04-21T12:47:31;18.40;99.90
30764;DHT22;17497;51.476;7.770;2023-04-21T12:49:58;18.40;99.90
30764;DHT22;17497;51.476;7.770;2023-04-21T12:52:24;18.00;99.90
30764;DHT22;17497;51.476;7.770;2023-04-21T12:54:52;18.10;99.90
30764;DHT22;17497;51.476;7.770;2023-04-21T12:57:19;18.20;99.90
30764;DHT22;17497;51.476;7.770;2023-04-21T12:59:46;18.40;99.90
30764;DHT22;17497;51.476;7.770;2023-04-21T13:02:13;18.30;99.90
30764;DHT22;17497;51.476;7.770;2023-04-21T13:04:40;17.90;99.90
30764;DHT22;17497;51.476;7.770;2023-04-21T13:07:08;17.90;99.90
30764;DHT22;17497;51.476;7.770;2023-04-21T13:09:34;17.60;99.90
30764;DHT22;17497;51.476;7.770;2023-04-21T13:12:01;17.90;99.90
30764;DHT22;17497;51.476;7.770;2023-04-21T13:14:27;19.70;99.90
30764;DHT22;17497;51.476;7.770;2023-04-21T13:16:55;21.10;99.90
30764;DHT22;17497;51.476;7.770;2023-04-21T13:19:22;22.60;99.90
30764;DHT22;17497;51.476;7.770;2023-04-21T13:21:48;22.80;99.90
30764;DHT22;17497;51.476;7.770;2023-04-21T13:24:17;21.60;99.90
30764;DHT22;17497;51.476;7.770;2023-04-21T13:26:44;22.60;99.90
30764;DHT22;17497;51.476;7.770;2023-04-21T13:29:10;23.60;99.90
30764;DHT22;17497;51.476;7.770;2023-04-21T13:31:37;23.80;99.90
30764;DHT22;17497;51.476;7.770;2023-04-21T13:34:04;23.80;99.90
30764;DHT22;17497;51.476;7.770;2023-04-21T13:36:30;23.60;99.90
30764;DHT22;17497;51.476;7.770;2023-04-21T13:38:58;23.00;99.90
30764;DHT22;17497;51.476;7.770;2023-04-21T13:41:26;22.40;99.90
30764;DHT22;17497;51.476;7.770;2023-04-21T13:43:52;21.30;99.90
30764;DHT22;17497;51.476;7.770;2023-04-21T13:46:19;21.10;99.90
30764;DHT22;17497;51.476;7.770;2023-04-21T13:48:46;21.10;99.90
30764;DHT22;17497;51.476;7.770;2023-04-21T13:51:13;21.20;99.90
30764;DHT22;17497;51.476;7.770;2023-04-21T13:53:40;21.00;99.90
30764;DHT22;17497;51.476;7.770;2023-04-21T13:56:06;20.50;99.90
30764;DHT22;17497;51.476;7.770;2023-04-21T13:58:35;20.50;99.90
30764;DHT22;17497;51.476;7.770;2023-04-21T14:01:02;20.40;99.90
30764;DHT22;17497;51.476;7.770;2023-04-21T14:03:29;20.20;99.90
30764;DHT22;17497;51.476;7.770;2023-04-21T14:05:56;19.50;99.90
30764;DHT22;17497;51.476;7.770;2023-04-21T14:08:23;19.30;99.90
30764;DHT22;17497;51.476;7.770;2023-04-21T14:10:50;19.40;99.90
30764;DHT22;17497;51.476;7.770;2023-04-21T14:13:16;19.40;99.90
30764;DHT22;17497;51.476;7.770;2023-04-21T14:15:48;19.30;99.90
30764;DHT22;17497;51.476;7.770;2023-04-21T14:18:15;19.10;99.90
30764;DHT22;17497;51.476;7.770;2023-04-21T14:20:42;18.80;99.90
30764;DHT22;17497;51.476;7.770;2023-04-21T14:23:10;18.80;99.90
30764;DHT22;17497;51.476;7.770;2023-04-21T14:25:37;18.60;99.90
30764;DHT22;17497;51.476;7.770;2023-04-21T14:28:04;18.60;99.90
30764;DHT22;17497;51.476;7.770;2023-04-21T14:30:36;18.40;99.90
30764;DHT22;17497;51.476;7.770;2023-04-21T14:33:03;18.30;99.90
30764;DHT22;17497;51.476;7.770;2023-04-21T14:35:30;18.30;99.90
30764;DHT22;17497;51.476;7.770;2023-04-21T14:37:57;18.30;99.90
30764;DHT22;17497;51.476;7.770;2023-04-21T14:40:23;18.30;99.90
30764;DHT22;17497;51.476;7.770;2023-04-21T14:42:50;18.30;99.90
30764;DHT22;17497;51.476;7.770;2023-04-21T14:45:16;18.30;99.90
30764;DHT22;17497;51.476;7.770;2023-04-21T14:47:43;18.30;99.90
30764;DHT22;17497;51.476;7.770;2023-04-21T14:50:10;18.40;99.90
30764;DHT22;17497;51.476;7.770;2023-04-21T14:52:36;18.30;99.90
30764;DHT22;17497;51.476;7.770;2023-04-21T14:55:04;18.30;99.90
30764;DHT22;17497;51.476;7.770;2023-04-21T14:57:30;18.30;99.90
30764;DHT22;17497;51.476;7.770;2023-04-21T14:59:57;18.40;99.90
30764;DHT22;17497;51.476;7.770;2023-04-21T15:02:24;18.30;99.90
30764;DHT22;17497;51.476;7.770;2023-04-21T15:04:50;18.30;99.90
30764;DHT22;17497;51.476;7.770;2023-04-21T15:07:17;18.30;99.90
30764;DHT22;17497;51.476;7.770;2023-04-21T15:09:49;18.40;99.90
30764;DHT22;17497;51.476;7.770;2023-04-21T15:12:16;18.40;99.90
30764;DHT22;17497;51.476;7.770;2023-04-21T15:14:42;18.40;99.90
30764;DHT22;17497;51.476;7.770;2023-04-21T15:17:09;18.40;99.90
30764;DHT22;17497;51.476;7.770;2023-04-21T15:19:36;18.40;99.90
30764;DHT22;17497;51.476;7.770;2023-04-21T15:22:03;18.50;99.90
30764;DHT22;17497;51.476;7.770;2023-04-21T15:24:30;18.50;99.90
30764;DHT22;17497;51.476;7.770;2023-04-21T15:26:57;18.60;99.90
30764;DHT22;17497;51.476;7.770;2023-04-21T15:29:23;18.50;99.90
30764;DHT22;17497;51.476;7.770;2023-04-21T15:31:50;18.50;99.90
30764;DHT22;17497;51.476;7.770;2023-04-21T15:34:17;18.50;99.90
30764;DHT22;17497;51.476;7.770;2023-04-21T15:36:43;18.60;99.90
30764;DHT22;17497;51.476;7.770;2023-04-21T15:39:10;18.50;99.90
30764;DHT22;17497;51.476;7.770;2023-04-21T15:41:39;18.30;99.90
30764;DHT22;17497;51.476;7.770;2023-04-21T15:44:06;18.20;99.90
30764;DHT22;17497;51.476;7.770;2023-04-21T15:46:32;18.10;99.90
30764;DHT22;17497;51.476;7.770;2023-04-21T15:49:02;18.00;99.90
30764;DHT22;17497;51.476;7.770;2023-04-21T15:51:29;18.00;99.90
30764;DHT22;17497;51.476;7.770;2023-04-21T15:54:00;18.00;99.90